WJA642 CYYJ-CYHZ
Flight info
| Callsign | WJA642 |
|---|---|
| Flight time | N/A |
| Altitude | 37000 |
| Route | CYYJ CYYJ6 PIBSO LIBOS VIDMA OMROK MLEXA OMVEV LOKRI ULBAR DUTIR LEROS MUSVI MITIK CYHZ |
| Aircraft | B738/L-V/N |
Departure
| Time | 2026-05-06 19:45 |
|---|---|
| Airport | Victoria International Airport (CYYJ) |
Arrival
| Time | N/A |
|---|---|
| Airport | Halifax / Stanfield International Airport (CYHZ) |
| Time | Latitude | Longitude | Altitude | Speed | Heading |
|---|---|---|---|---|---|
| 2026-05-06 19:22 | 48.64098 | -123.42907 | 58 ft | 0 kts | 186° |
| 2026-05-06 19:31 | 48.64107 | -123.42906 | 50 ft | 2 kts | 186° |
| 2026-05-06 19:31 | 48.64123 | -123.42903 | 54 ft | 2 kts | 186° |
| 2026-05-06 19:31 | 48.64156 | -123.42898 | 56 ft | 2 kts | 186° |
| 2026-05-06 19:32 | 48.64170 | -123.42895 | 51 ft | 0 kts | 186° |
| 2026-05-06 19:36 | 48.64166 | -123.42898 | 54 ft | 1 kts | 207° |
| 2026-05-06 19:36 | 48.64169 | -123.42910 | 52 ft | 1 kts | 311° |
| 2026-05-06 19:37 | 48.64193 | -123.42922 | 58 ft | 7 kts | 343° |
| 2026-05-06 19:37 | 48.64237 | -123.42962 | 54 ft | 8 kts | 305° |
| 2026-05-06 19:37 | 48.64253 | -123.43044 | 53 ft | 8 kts | 278° |
| 2026-05-06 19:37 | 48.64258 | -123.43098 | 55 ft | 8 kts | 275° |
| 2026-05-06 19:38 | 48.64234 | -123.43190 | 55 ft | 7 kts | 241° |
| 2026-05-06 19:38 | 48.64209 | -123.43260 | 52 ft | 7 kts | 248° |
| 2026-05-06 19:38 | 48.64209 | -123.43333 | 59 ft | 7 kts | 278° |
| 2026-05-06 19:38 | 48.64217 | -123.43404 | 57 ft | 7 kts | 280° |
| 2026-05-06 19:39 | 48.64237 | -123.43467 | 53 ft | 7 kts | 317° |
| 2026-05-06 19:39 | 48.64290 | -123.43469 | 57 ft | 11 kts | 33° |
| 2026-05-06 19:39 | 48.64360 | -123.43364 | 57 ft | 17 kts | 43° |
| 2026-05-06 19:39 | 48.64455 | -123.43228 | 60 ft | 21 kts | 44° |
| 2026-05-06 19:40 | 48.64519 | -123.43134 | 54 ft | 23 kts | 44° |
| 2026-05-06 19:40 | 48.64635 | -123.43059 | 57 ft | 20 kts | 344° |
| 2026-05-06 19:40 | 48.64773 | -123.43151 | 61 ft | 22 kts | 332° |
| 2026-05-06 19:40 | 48.64892 | -123.43246 | 61 ft | 16 kts | 332° |
| 2026-05-06 19:41 | 48.64945 | -123.43324 | 63 ft | 12 kts | 288° |
| 2026-05-06 19:41 | 48.64968 | -123.43438 | 61 ft | 12 kts | 286° |
| 2026-05-06 19:41 | 48.64990 | -123.43552 | 58 ft | 10 kts | 286° |
| 2026-05-06 19:41 | 48.65009 | -123.43653 | 57 ft | 10 kts | 286° |
| 2026-05-06 19:42 | 48.65025 | -123.43738 | 57 ft | 8 kts | 286° |
| 2026-05-06 19:42 | 48.65041 | -123.43819 | 54 ft | 9 kts | 287° |
| 2026-05-06 19:42 | 48.65066 | -123.43866 | 55 ft | 0 kts | 326° |
| 2026-05-06 19:43 | 48.65073 | -123.43873 | 55 ft | 6 kts | 330° |
| 2026-05-06 19:43 | 48.65145 | -123.43921 | 55 ft | 13 kts | 8° |
| 2026-05-06 19:43 | 48.65156 | -123.43808 | 53 ft | 13 kts | 106° |
| 2026-05-06 19:44 | 48.65152 | -123.43787 | 55 ft | 0 kts | 106° |
| 2026-05-06 19:44 | 48.65087 | -123.43449 | 60 ft | 70 kts | 106° |
| 2026-05-06 19:44 | 48.64887 | -123.42394 | 60 ft | 137 kts | 106° |
| 2026-05-06 19:44 | 48.64723 | -123.41531 | 62 ft | 169 kts | 106° |
| 2026-05-06 19:45 | 48.64456 | -123.40162 | 150 ft | 201 kts | 106° |
| 2026-05-06 19:45 | 48.64038 | -123.38118 | 797 ft | 211 kts | 108° |
| 2026-05-06 19:45 | 48.63684 | -123.36334 | 1237 ft | 227 kts | 108° |
| 2026-05-06 19:45 | 48.63304 | -123.34355 | 1491 ft | 249 kts | 108° |
| 2026-05-06 19:46 | 48.62814 | -123.31767 | 2163 ft | 260 kts | 107° |
| 2026-05-06 19:46 | 48.62368 | -123.29364 | 2408 ft | 280 kts | 107° |
| 2026-05-06 19:46 | 48.61816 | -123.26336 | 2573 ft | 306 kts | 106° |
| 2026-05-06 19:46 | 48.61254 | -123.23139 | 2748 ft | 328 kts | 105° |
| 2026-05-06 19:47 | 48.60653 | -123.19703 | 3127 ft | 341 kts | 105° |
| 2026-05-06 19:47 | 48.60046 | -123.16232 | 3683 ft | 349 kts | 105° |
| 2026-05-06 19:47 | 48.59529 | -123.13368 | 4159 ft | 356 kts | 107° |
| 2026-05-06 19:47 | 48.58816 | -123.09750 | 4734 ft | 367 kts | 108° |
| 2026-05-06 19:48 | 48.58151 | -123.06533 | 5218 ft | 374 kts | 107° |
| 2026-05-06 19:48 | 48.57703 | -123.04313 | 5425 ft | 375 kts | 108° |
| 2026-05-06 19:48 | 48.57109 | -123.01249 | 5851 ft | 375 kts | 107° |
| 2026-05-06 19:48 | 48.56535 | -122.98108 | 6302 ft | 380 kts | 105° |
| 2026-05-06 19:49 | 48.55850 | -122.94154 | 6824 ft | 386 kts | 105° |
| 2026-05-06 19:49 | 48.55174 | -122.90292 | 7312 ft | 390 kts | 105° |
| 2026-05-06 19:49 | 48.54614 | -122.87167 | 7721 ft | 393 kts | 106° |
| 2026-05-06 19:49 | 48.53868 | -122.83082 | 8246 ft | 397 kts | 106° |
| 2026-05-06 19:50 | 48.53418 | -122.80642 | 8573 ft | 399 kts | 106° |
| 2026-05-06 19:50 | 48.52990 | -122.78340 | 8871 ft | 400 kts | 106° |
| 2026-05-06 19:50 | 48.52227 | -122.74222 | 9417 ft | 403 kts | 105° |
| 2026-05-06 19:50 | 48.51868 | -122.71458 | 9712 ft | 407 kts | 94° |
| 2026-05-06 19:51 | 48.51956 | -122.68627 | 9999 ft | 409 kts | 77° |
| 2026-05-06 19:51 | 48.52969 | -122.64343 | 10747 ft | 403 kts | 64° |
| 2026-05-06 19:51 | 48.54152 | -122.60533 | 11331 ft | 403 kts | 63° |
| 2026-05-06 19:51 | 48.55166 | -122.57314 | 11852 ft | 403 kts | 63° |
| 2026-05-06 19:52 | 48.56272 | -122.53677 | 12439 ft | 402 kts | 64° |
| 2026-05-06 19:52 | 48.57388 | -122.49813 | 13068 ft | 402 kts | 65° |
| 2026-05-06 19:52 | 48.58472 | -122.45995 | 13703 ft | 401 kts | 65° |
| 2026-05-06 19:52 | 48.59517 | -122.42293 | 14278 ft | 400 kts | 65° |
| 2026-05-06 19:53 | 48.60602 | -122.38424 | 14868 ft | 399 kts | 65° |
| 2026-05-06 19:53 | 48.61673 | -122.34585 | 15437 ft | 399 kts | 65° |
| 2026-05-06 19:53 | 48.62745 | -122.30727 | 16119 ft | 395 kts | 65° |
| 2026-05-06 19:53 | 48.63790 | -122.26937 | 16863 ft | 390 kts | 65° |
| 2026-05-06 19:54 | 48.64788 | -122.23295 | 17548 ft | 385 kts | 65° |
| 2026-05-06 19:54 | 48.65799 | -122.19582 | 18334 ft | 378 kts | 65° |
| 2026-05-06 19:54 | 48.66781 | -122.15946 | 19013 ft | 371 kts | 65° |
| 2026-05-06 19:54 | 48.67747 | -122.12344 | 19689 ft | 364 kts | 65° |
| 2026-05-06 19:55 | 48.68661 | -122.08904 | 20354 ft | 355 kts | 65° |
| 2026-05-06 19:55 | 48.69261 | -122.06626 | 20812 ft | 349 kts | 65° |
| 2026-05-06 19:55 | 48.70341 | -122.02487 | 21654 ft | 336 kts | 65° |
| 2026-05-06 19:55 | 48.71202 | -121.99158 | 21893 ft | 344 kts | 65° |
| 2026-05-06 19:56 | 48.72098 | -121.95712 | 21924 ft | 357 kts | 65° |
| 2026-05-06 19:56 | 48.73012 | -121.92206 | 22049 ft | 368 kts | 65° |
| 2026-05-06 19:56 | 48.73976 | -121.88535 | 22126 ft | 379 kts | 65° |
| 2026-05-06 19:56 | 48.74911 | -121.84988 | 22232 ft | 389 kts | 65° |
| 2026-05-06 19:57 | 48.75931 | -121.81130 | 22442 ft | 397 kts | 65° |
| 2026-05-06 19:57 | 48.76966 | -121.77235 | 22699 ft | 400 kts | 65° |
| 2026-05-06 19:57 | 48.78011 | -121.73304 | 23007 ft | 403 kts | 65° |
| 2026-05-06 19:57 | 48.79023 | -121.69492 | 23282 ft | 407 kts | 65° |
| 2026-05-06 19:58 | 48.80108 | -121.65409 | 23567 ft | 410 kts | 65° |
| 2026-05-06 19:58 | 48.80820 | -121.62724 | 23784 ft | 412 kts | 65° |
| 2026-05-06 19:58 | 48.81867 | -121.58777 | 23999 ft | 416 kts | 65° |
| 2026-05-06 19:58 | 48.83277 | -121.53450 | 24361 ft | 419 kts | 65° |
| 2026-05-06 19:59 | 48.84007 | -121.50683 | 24509 ft | 422 kts | 65° |
| 2026-05-06 19:59 | 48.85102 | -121.46554 | 24773 ft | 423 kts | 63° |
| 2026-05-06 19:59 | 48.86347 | -121.42584 | 25004 ft | 423 kts | 58° |
| 2026-05-06 19:59 | 48.87742 | -121.38713 | 25355 ft | 422 kts | 56° |
| 2026-05-06 20:00 | 48.89190 | -121.34883 | 25651 ft | 422 kts | 56° |
| 2026-05-06 20:00 | 48.90641 | -121.31085 | 25968 ft | 422 kts | 55° |
| 2026-05-06 20:00 | 48.92151 | -121.27141 | 26330 ft | 421 kts | 55° |
| 2026-05-06 20:00 | 48.93595 | -121.23361 | 26638 ft | 421 kts | 55° |
| 2026-05-06 20:01 | 48.95054 | -121.19529 | 26994 ft | 420 kts | 55° |
| 2026-05-06 20:01 | 48.96525 | -121.15648 | 27345 ft | 419 kts | 55° |
| 2026-05-06 20:01 | 48.97975 | -121.11808 | 27673 ft | 418 kts | 55° |
| 2026-05-06 20:01 | 48.99403 | -121.08011 | 28028 ft | 413 kts | 55° |
| 2026-05-06 20:02 | 49.00816 | -121.04224 | 28395 ft | 412 kts | 55° |
| 2026-05-06 20:02 | 49.02232 | -121.00412 | 28755 ft | 411 kts | 54° |
| 2026-05-06 20:02 | 49.03722 | -120.96872 | 29087 ft | 405 kts | 47° |
| 2026-05-06 20:02 | 49.05391 | -120.93464 | 29481 ft | 400 kts | 46° |
| 2026-05-06 20:03 | 49.07078 | -120.90132 | 29825 ft | 397 kts | 45° |
| 2026-05-06 20:03 | 49.08743 | -120.86859 | 30164 ft | 394 kts | 45° |
| 2026-05-06 20:03 | 49.10469 | -120.83473 | 30079 ft | 405 kts | 45° |
| 2026-05-06 20:03 | 49.12211 | -120.80083 | 29917 ft | 416 kts | 45° |
| 2026-05-06 20:04 | 49.15711 | -120.73317 | 29986 ft | 427 kts | 45° |
| 2026-05-06 20:04 | 49.17613 | -120.69657 | 30093 ft | 431 kts | 45° |
| 2026-05-06 20:04 | 49.19499 | -120.66032 | 30135 ft | 437 kts | 45° |
| 2026-05-06 20:05 | 49.23188 | -120.58963 | 30231 ft | 447 kts | 45° |
| 2026-05-06 20:05 | 49.27111 | -120.51463 | 30348 ft | 458 kts | 45° |
| 2026-05-06 20:06 | 49.31145 | -120.43768 | 30456 ft | 468 kts | 45° |
| 2026-05-06 20:06 | 49.35231 | -120.35962 | 30838 ft | 469 kts | 45° |
| 2026-05-06 20:07 | 49.37243 | -120.32036 | 31338 ft | 462 kts | 47° |
| 2026-05-06 20:07 | 49.38965 | -120.27892 | 31791 ft | 465 kts | 58° |
| 2026-05-06 20:07 | 49.40277 | -120.23356 | 32356 ft | 458 kts | 63° |
| 2026-05-06 20:07 | 49.41433 | -120.18844 | 32867 ft | 451 kts | 63° |
| 2026-05-06 20:08 | 49.42544 | -120.14414 | 33360 ft | 442 kts | 63° |
| 2026-05-06 20:08 | 49.43628 | -120.10069 | 33852 ft | 433 kts | 63° |
| 2026-05-06 20:08 | 49.45822 | -120.01295 | 33484 ft | 448 kts | 63° |
| 2026-05-06 20:09 | 49.46960 | -119.96787 | 33271 ft | 457 kts | 63° |
| 2026-05-06 20:09 | 49.48115 | -119.92237 | 33065 ft | 466 kts | 63° |
| 2026-05-06 20:09 | 49.50482 | -119.82924 | 33162 ft | 470 kts | 63° |
| 2026-05-06 20:10 | 49.51676 | -119.78222 | 33342 ft | 467 kts | 63° |
| 2026-05-06 20:10 | 49.52823 | -119.73688 | 33619 ft | 463 kts | 63° |
| 2026-05-06 20:10 | 49.53980 | -119.69105 | 33841 ft | 460 kts | 63° |
| 2026-05-06 20:10 | 49.55131 | -119.64520 | 34065 ft | 456 kts | 63° |
| 2026-05-06 20:11 | 49.56265 | -119.59980 | 34289 ft | 452 kts | 63° |
| 2026-05-06 20:11 | 49.57379 | -119.55490 | 34530 ft | 447 kts | 63° |
| 2026-05-06 20:11 | 49.58479 | -119.51024 | 34794 ft | 443 kts | 63° |
| 2026-05-06 20:11 | 49.59558 | -119.46615 | 35011 ft | 439 kts | 63° |
| 2026-05-06 20:12 | 49.61735 | -119.37689 | 34804 ft | 454 kts | 63° |
| 2026-05-06 20:12 | 49.62849 | -119.33150 | 34599 ft | 464 kts | 63° |
| 2026-05-06 20:12 | 49.63961 | -119.28427 | 34438 ft | 473 kts | 64° |
| 2026-05-06 20:13 | 49.65066 | -119.23585 | 34226 ft | 483 kts | 64° |
| 2026-05-06 20:13 | 49.66187 | -119.18642 | 34146 ft | 489 kts | 65° |
| 2026-05-06 20:13 | 49.67298 | -119.13718 | 34394 ft | 486 kts | 65° |
| 2026-05-06 20:13 | 49.68408 | -119.08765 | 34598 ft | 485 kts | 65° |
| 2026-05-06 20:14 | 49.69498 | -119.03886 | 34819 ft | 483 kts | 65° |
| 2026-05-06 20:14 | 49.70590 | -118.98986 | 35045 ft | 480 kts | 65° |
| 2026-05-06 20:14 | 49.71678 | -118.94093 | 35311 ft | 477 kts | 65° |
| 2026-05-06 20:14 | 49.72738 | -118.89230 | 35534 ft | 475 kts | 65° |
| 2026-05-06 20:15 | 49.73774 | -118.84400 | 35778 ft | 472 kts | 65° |
| 2026-05-06 20:15 | 49.74784 | -118.79652 | 36038 ft | 469 kts | 65° |
| 2026-05-06 20:15 | 49.75808 | -118.74817 | 36261 ft | 465 kts | 66° |
| 2026-05-06 20:15 | 49.76799 | -118.70129 | 36528 ft | 461 kts | 66° |
| 2026-05-06 20:16 | 49.77786 | -118.65453 | 36768 ft | 457 kts | 66° |
| 2026-05-06 20:16 | 49.78775 | -118.60782 | 36731 ft | 460 kts | 66° |
| 2026-05-06 20:16 | 49.80790 | -118.51325 | 36765 ft | 462 kts | 66° |
| 2026-05-06 20:17 | 49.82769 | -118.42086 | 36732 ft | 465 kts | 66° |
| 2026-05-06 20:17 | 49.83789 | -118.37348 | 36853 ft | 463 kts | 66° |
| 2026-05-06 20:17 | 49.84813 | -118.32601 | 36986 ft | 461 kts | 65° |
| 2026-05-06 20:18 | 49.86859 | -118.23149 | 37002 ft | 463 kts | 65° |
| 2026-05-06 20:18 | 49.88928 | -118.13659 | 37024 ft | 465 kts | 65° |
| 2026-05-06 20:19 | 49.91065 | -118.04219 | 37017 ft | 466 kts | 65° |
| 2026-05-06 20:19 | 49.93258 | -117.94728 | 37026 ft | 470 kts | 65° |
| 2026-05-06 20:20 | 49.95498 | -117.85142 | 37051 ft | 473 kts | 64° |
| 2026-05-06 20:20 | 49.97772 | -117.75484 | 37044 ft | 478 kts | 64° |
| 2026-05-06 20:21 | 50.00087 | -117.65734 | 37079 ft | 481 kts | 65° |
| 2026-05-06 20:21 | 50.02422 | -117.55983 | 37060 ft | 486 kts | 64° |
| 2026-05-06 20:22 | 50.04790 | -117.46169 | 37011 ft | 489 kts | 64° |
| 2026-05-06 20:22 | 50.07203 | -117.36230 | 37032 ft | 492 kts | 65° |
| 2026-05-06 20:23 | 50.09648 | -117.26244 | 37031 ft | 496 kts | 64° |
| 2026-05-06 20:23 | 50.12148 | -117.16202 | 37036 ft | 501 kts | 64° |
| 2026-05-06 20:24 | 50.14684 | -117.06063 | 37038 ft | 504 kts | 64° |
| 2026-05-06 20:24 | 50.17213 | -116.95988 | 37054 ft | 505 kts | 64° |
| 2026-05-06 20:25 | 50.19835 | -116.85774 | 37066 ft | 505 kts | 63° |
| 2026-05-06 20:25 | 50.22504 | -116.75640 | 37088 ft | 504 kts | 63° |
| 2026-05-06 20:26 | 50.25191 | -116.65524 | 37096 ft | 504 kts | 63° |
| 2026-05-06 20:26 | 50.27889 | -116.55403 | 37115 ft | 503 kts | 63° |
| 2026-05-06 20:27 | 50.30523 | -116.45576 | 37115 ft | 503 kts | 63° |
| 2026-05-06 20:27 | 50.32917 | -116.36677 | 37103 ft | 504 kts | 63° |
| 2026-05-06 20:28 | 50.35648 | -116.26575 | 37093 ft | 504 kts | 63° |
| 2026-05-06 20:28 | 50.38397 | -116.16436 | 37085 ft | 505 kts | 63° |
| 2026-05-06 20:29 | 50.41143 | -116.06338 | 37084 ft | 504 kts | 63° |
| 2026-05-06 20:29 | 50.43901 | -115.96223 | 37061 ft | 505 kts | 63° |
| 2026-05-06 20:30 | 50.48059 | -115.81013 | 37064 ft | 505 kts | 63° |
| 2026-05-06 20:31 | 50.50825 | -115.70908 | 37045 ft | 505 kts | 63° |
| 2026-05-06 20:31 | 50.53584 | -115.60819 | 37045 ft | 504 kts | 63° |
| 2026-05-06 20:32 | 50.56350 | -115.50690 | 37061 ft | 502 kts | 63° |
| 2026-05-06 20:32 | 50.59102 | -115.40632 | 37044 ft | 501 kts | 63° |
| 2026-05-06 20:33 | 50.61753 | -115.30478 | 37014 ft | 504 kts | 69° |
| 2026-05-06 20:33 | 50.63253 | -115.19672 | 37059 ft | 507 kts | 78° |
| 2026-05-06 20:33 | 50.63819 | -115.14155 | 36451 ft | 518 kts | 78° |
| 2026-05-06 20:34 | 50.64405 | -115.08466 | 35237 ft | 526 kts | 78° |
| 2026-05-06 20:34 | 50.65000 | -115.02693 | 33553 ft | 540 kts | 78° |
| 2026-05-06 20:34 | 50.65545 | -114.96864 | 33301 ft | 524 kts | 80° |
| 2026-05-06 20:34 | 50.65958 | -114.91301 | 33354 ft | 507 kts | 86° |
| 2026-05-06 20:35 | 50.65708 | -114.85833 | 33440 ft | 490 kts | 98° |
| 2026-05-06 20:35 | 50.65136 | -114.80768 | 34211 ft | 460 kts | 98° |
| 2026-05-06 20:35 | 50.64702 | -114.75841 | 34858 ft | 444 kts | 95° |
| 2026-05-06 20:35 | 50.64413 | -114.71087 | 35456 ft | 433 kts | 92° |
| 2026-05-06 20:36 | 50.64202 | -114.66348 | 35415 ft | 438 kts | 91° |
| 2026-05-06 20:36 | 50.64032 | -114.61476 | 35206 ft | 448 kts | 91° |
| 2026-05-06 20:36 | 50.63874 | -114.56599 | 35209 ft | 451 kts | 91° |
| 2026-05-06 20:37 | 50.63564 | -114.46649 | 35342 ft | 456 kts | 90° |
| 2026-05-06 20:37 | 50.63376 | -114.36617 | 35460 ft | 459 kts | 85° |
| 2026-05-06 20:38 | 50.63711 | -114.26537 | 35615 ft | 462 kts | 83° |
| 2026-05-06 20:38 | 50.63940 | -114.21591 | 35885 ft | 458 kts | 83° |
| 2026-05-06 20:38 | 50.64180 | -114.16521 | 36194 ft | 454 kts | 82° |
| 2026-05-06 20:38 | 50.64412 | -114.11644 | 36430 ft | 451 kts | 82° |
| 2026-05-06 20:39 | 50.64646 | -114.06745 | 36709 ft | 447 kts | 82° |
| 2026-05-06 20:39 | 50.64876 | -114.01895 | 36980 ft | 442 kts | 82° |
| 2026-05-06 20:39 | 50.65105 | -113.97039 | 36974 ft | 445 kts | 82° |
| 2026-05-06 20:40 | 50.65567 | -113.87244 | 36952 ft | 449 kts | 82° |
| 2026-05-06 20:40 | 50.66012 | -113.77388 | 36844 ft | 456 kts | 82° |
| 2026-05-06 20:41 | 50.66489 | -113.67395 | 36972 ft | 457 kts | 82° |
| 2026-05-06 20:41 | 50.67027 | -113.57373 | 36980 ft | 460 kts | 81° |
| 2026-05-06 20:42 | 50.67583 | -113.47282 | 36963 ft | 464 kts | 81° |
| 2026-05-06 20:42 | 50.68146 | -113.37091 | 36987 ft | 468 kts | 81° |
| 2026-05-06 20:43 | 50.68713 | -113.26806 | 36986 ft | 472 kts | 81° |
| 2026-05-06 20:43 | 50.69274 | -113.16569 | 36984 ft | 476 kts | 81° |
| 2026-05-06 20:44 | 50.69844 | -113.06070 | 36982 ft | 480 kts | 81° |
| 2026-05-06 20:44 | 50.70412 | -112.95525 | 36987 ft | 484 kts | 81° |
| 2026-05-06 20:45 | 50.70975 | -112.84920 | 36983 ft | 487 kts | 79° |
| 2026-05-06 20:45 | 50.72230 | -112.76326 | 37097 ft | 479 kts | 70° |
| 2026-05-06 20:45 | 50.72765 | -112.71048 | 36931 ft | 492 kts | 83° |
| 2026-05-06 20:46 | 50.72826 | -112.65675 | 37063 ft | 493 kts | 86° |
| 2026-05-06 20:46 | 50.72723 | -112.54760 | 36979 ft | 498 kts | 86° |
| 2026-05-06 20:46 | 50.72682 | -112.49307 | 36744 ft | 504 kts | 86° |
| 2026-05-06 20:47 | 50.72643 | -112.43779 | 36903 ft | 500 kts | 85° |
| 2026-05-06 20:47 | 50.72742 | -112.32765 | 36986 ft | 499 kts | 84° |
| 2026-05-06 20:48 | 50.73013 | -112.21899 | 36986 ft | 499 kts | 81° |
| 2026-05-06 20:48 | 50.73487 | -112.10966 | 36999 ft | 499 kts | 81° |
| 2026-05-06 20:49 | 50.73978 | -112.00221 | 37011 ft | 499 kts | 81° |
| 2026-05-06 20:49 | 50.74478 | -111.89257 | 37010 ft | 500 kts | 80° |
| 2026-05-06 20:50 | 50.74970 | -111.78304 | 37018 ft | 500 kts | 80° |
| 2026-05-06 20:50 | 50.75452 | -111.67409 | 37022 ft | 500 kts | 80° |
| 2026-05-06 20:51 | 50.75927 | -111.56463 | 37015 ft | 500 kts | 80° |
| 2026-05-06 20:51 | 50.76394 | -111.45527 | 37025 ft | 500 kts | 81° |
| 2026-05-06 20:52 | 50.76860 | -111.34571 | 37039 ft | 499 kts | 80° |
| 2026-05-06 20:52 | 50.77305 | -111.23672 | 37033 ft | 499 kts | 81° |
| 2026-05-06 20:53 | 50.77681 | -111.12657 | 37036 ft | 499 kts | 81° |
| 2026-05-06 20:53 | 50.78027 | -111.01723 | 37052 ft | 499 kts | 81° |
| 2026-05-06 20:54 | 50.78357 | -110.90908 | 37033 ft | 499 kts | 81° |
| 2026-05-06 20:54 | 50.78679 | -110.80100 | 37065 ft | 498 kts | 81° |
| 2026-05-06 20:55 | 50.78997 | -110.69204 | 37049 ft | 498 kts | 81° |
| 2026-05-06 20:55 | 50.79276 | -110.58265 | 37054 ft | 499 kts | 82° |
| 2026-05-06 20:56 | 50.79490 | -110.47560 | 37062 ft | 498 kts | 82° |
| 2026-05-06 20:56 | 50.79692 | -110.36530 | 37065 ft | 498 kts | 82° |
| 2026-05-06 20:57 | 50.79893 | -110.25640 | 37074 ft | 498 kts | 81° |
| 2026-05-06 20:57 | 50.80083 | -110.14639 | 37069 ft | 498 kts | 81° |
| 2026-05-06 20:58 | 50.80263 | -110.03773 | 37083 ft | 497 kts | 81° |
| 2026-05-06 20:58 | 50.80440 | -109.92823 | 37076 ft | 497 kts | 82° |
| 2026-05-06 20:59 | 50.80614 | -109.81914 | 37091 ft | 496 kts | 81° |
| 2026-05-06 20:59 | 50.80793 | -109.70975 | 37095 ft | 496 kts | 81° |
| 2026-05-06 21:00 | 50.80965 | -109.60150 | 37088 ft | 496 kts | 81° |
| 2026-05-06 21:00 | 50.81135 | -109.49243 | 37094 ft | 495 kts | 81° |
| 2026-05-06 21:01 | 50.81300 | -109.38361 | 37108 ft | 495 kts | 81° |
| 2026-05-06 21:01 | 50.81464 | -109.27497 | 37102 ft | 495 kts | 81° |
| 2026-05-06 21:02 | 50.81628 | -109.16582 | 37101 ft | 495 kts | 81° |
| 2026-05-06 21:02 | 50.81790 | -109.05693 | 37108 ft | 494 kts | 81° |
| 2026-05-06 21:03 | 50.81949 | -108.94901 | 37110 ft | 494 kts | 81° |
| 2026-05-06 21:03 | 50.82111 | -108.84054 | 37110 ft | 494 kts | 81° |
| 2026-05-06 21:04 | 50.82265 | -108.73606 | 37118 ft | 493 kts | 81° |
| 2026-05-06 21:04 | 50.82424 | -108.62754 | 37120 ft | 493 kts | 81° |
| 2026-05-06 21:05 | 50.82582 | -108.52071 | 37125 ft | 493 kts | 81° |
| 2026-05-06 21:05 | 50.82743 | -108.41266 | 37129 ft | 493 kts | 81° |
| 2026-05-06 21:06 | 50.82909 | -108.30442 | 37124 ft | 493 kts | 81° |
| 2026-05-06 21:06 | 50.83078 | -108.19699 | 37120 ft | 493 kts | 81° |
| 2026-05-06 21:07 | 50.83254 | -108.08895 | 37127 ft | 492 kts | 81° |
| 2026-05-06 21:07 | 50.83434 | -107.98201 | 37128 ft | 492 kts | 81° |
| 2026-05-06 21:08 | 50.83622 | -107.87354 | 37119 ft | 492 kts | 81° |
| 2026-05-06 21:08 | 50.83834 | -107.76699 | 37127 ft | 490 kts | 79° |
| 2026-05-06 21:09 | 50.84369 | -107.66014 | 37151 ft | 486 kts | 77° |
| 2026-05-06 21:09 | 50.85015 | -107.55353 | 37129 ft | 486 kts | 76° |
| 2026-05-06 21:10 | 50.85685 | -107.44687 | 37117 ft | 486 kts | 76° |
| 2026-05-06 21:10 | 50.86363 | -107.34120 | 37129 ft | 486 kts | 76° |
| 2026-05-06 21:11 | 50.87058 | -107.23511 | 37155 ft | 485 kts | 76° |
| 2026-05-06 21:11 | 50.87747 | -107.13168 | 37150 ft | 485 kts | 76° |
| 2026-05-06 21:12 | 50.88468 | -107.02525 | 37129 ft | 486 kts | 76° |
| 2026-05-06 21:12 | 50.89198 | -106.91902 | 37146 ft | 486 kts | 76° |
| 2026-05-06 21:13 | 50.89940 | -106.81283 | 37160 ft | 485 kts | 76° |
| 2026-05-06 21:13 | 50.90686 | -106.70599 | 37152 ft | 487 kts | 77° |
| 2026-05-06 21:14 | 50.91284 | -106.59980 | 37142 ft | 488 kts | 78° |
| 2026-05-06 21:14 | 50.91775 | -106.49315 | 37145 ft | 489 kts | 78° |
| 2026-05-06 21:15 | 50.92243 | -106.38770 | 37146 ft | 489 kts | 78° |
| 2026-05-06 21:15 | 50.92720 | -106.28006 | 37151 ft | 489 kts | 78° |
| 2026-05-06 21:16 | 50.93205 | -106.17199 | 37144 ft | 489 kts | 78° |
| 2026-05-06 21:16 | 50.93692 | -106.06468 | 37145 ft | 489 kts | 78° |
| 2026-05-06 21:17 | 50.94176 | -105.95955 | 37133 ft | 489 kts | 78° |
| 2026-05-06 21:17 | 50.94676 | -105.85232 | 37136 ft | 489 kts | 78° |
| 2026-05-06 21:18 | 50.95148 | -105.74986 | 37146 ft | 490 kts | 79° |
| 2026-05-06 21:18 | 50.95503 | -105.64373 | 37144 ft | 491 kts | 80° |
| 2026-05-06 21:19 | 50.95734 | -105.53524 | 37143 ft | 493 kts | 81° |
| 2026-05-06 21:19 | 50.95829 | -105.42880 | 37147 ft | 493 kts | 82° |
| 2026-05-06 21:20 | 50.95902 | -105.31982 | 37146 ft | 493 kts | 82° |
| 2026-05-06 21:20 | 50.95963 | -105.21766 | 37152 ft | 493 kts | 82° |
| 2026-05-06 21:21 | 50.96025 | -105.11009 | 37151 ft | 493 kts | 82° |
| 2026-05-06 21:21 | 50.96088 | -105.00209 | 37138 ft | 493 kts | 82° |
| 2026-05-06 21:22 | 50.96152 | -104.89493 | 37164 ft | 492 kts | 82° |
| 2026-05-06 21:22 | 50.96220 | -104.78507 | 37139 ft | 493 kts | 82° |
| 2026-05-06 21:23 | 50.96291 | -104.67638 | 37162 ft | 492 kts | 82° |
| 2026-05-06 21:23 | 50.96370 | -104.56820 | 37157 ft | 492 kts | 81° |
| 2026-05-06 21:24 | 50.96459 | -104.46137 | 37150 ft | 492 kts | 81° |
| 2026-05-06 21:24 | 50.96559 | -104.35258 | 37144 ft | 491 kts | 81° |
| 2026-05-06 21:25 | 50.96668 | -104.24562 | 37149 ft | 491 kts | 81° |
| 2026-05-06 21:25 | 50.96789 | -104.13903 | 37143 ft | 491 kts | 81° |
| 2026-05-06 21:26 | 50.96926 | -104.03259 | 37150 ft | 490 kts | 81° |
| 2026-05-06 21:26 | 50.97083 | -103.92417 | 37147 ft | 490 kts | 81° |
| 2026-05-06 21:27 | 50.97259 | -103.81608 | 37149 ft | 490 kts | 81° |
| 2026-05-06 21:27 | 50.97453 | -103.70822 | 37140 ft | 489 kts | 81° |
| 2026-05-06 21:28 | 50.97667 | -103.60023 | 37146 ft | 489 kts | 81° |
| 2026-05-06 21:28 | 50.97889 | -103.49225 | 37144 ft | 489 kts | 81° |
| 2026-05-06 21:29 | 50.98070 | -103.38464 | 37142 ft | 489 kts | 82° |
| 2026-05-06 21:29 | 50.98213 | -103.27874 | 37125 ft | 490 kts | 82° |
| 2026-05-06 21:30 | 50.98293 | -103.19663 | 37141 ft | 490 kts | 83° |
| 2026-05-06 21:30 | 50.98335 | -103.08808 | 37144 ft | 490 kts | 83° |
| 2026-05-06 21:31 | 50.98356 | -102.98254 | 37146 ft | 490 kts | 83° |
| 2026-05-06 21:31 | 50.98386 | -102.87419 | 37135 ft | 490 kts | 83° |
| 2026-05-06 21:32 | 50.98433 | -102.76541 | 37136 ft | 490 kts | 83° |
| 2026-05-06 21:32 | 50.98543 | -102.60376 | 37123 ft | 490 kts | 83° |
| 2026-05-06 21:33 | 50.98643 | -102.49700 | 37121 ft | 490 kts | 83° |
| 2026-05-06 21:33 | 50.98765 | -102.38911 | 37119 ft | 489 kts | 83° |
| 2026-05-06 21:34 | 50.98910 | -102.28106 | 37123 ft | 489 kts | 83° |
| 2026-05-06 21:34 | 50.99077 | -102.17289 | 37131 ft | 489 kts | 83° |
| 2026-05-06 21:35 | 50.99241 | -102.06543 | 37125 ft | 490 kts | 84° |
| 2026-05-06 21:35 | 50.99148 | -101.95819 | 37152 ft | 491 kts | 86° |
| 2026-05-06 21:36 | 50.98957 | -101.85054 | 37123 ft | 492 kts | 86° |
| 2026-05-06 21:36 | 50.98764 | -101.74413 | 37125 ft | 492 kts | 86° |
| 2026-05-06 21:37 | 50.98580 | -101.63514 | 37144 ft | 491 kts | 86° |
| 2026-05-06 21:37 | 50.98415 | -101.52744 | 37133 ft | 491 kts | 86° |
| 2026-05-06 21:38 | 50.98272 | -101.42019 | 37126 ft | 491 kts | 86° |
| 2026-05-06 21:38 | 50.98148 | -101.31187 | 37130 ft | 491 kts | 86° |
| 2026-05-06 21:39 | 50.98046 | -101.20539 | 37115 ft | 491 kts | 86° |
| 2026-05-06 21:39 | 50.97964 | -101.09686 | 37124 ft | 491 kts | 86° |
| 2026-05-06 21:40 | 50.97903 | -100.98857 | 37112 ft | 491 kts | 86° |
| 2026-05-06 21:40 | 50.97862 | -100.88159 | 37107 ft | 490 kts | 86° |
| 2026-05-06 21:41 | 50.97839 | -100.77287 | 37117 ft | 490 kts | 86° |
| 2026-05-06 21:41 | 50.97915 | -100.66708 | 37097 ft | 489 kts | 84° |
| 2026-05-06 21:42 | 50.98135 | -100.55991 | 37110 ft | 489 kts | 84° |
| 2026-05-06 21:42 | 50.98622 | -100.45319 | 37084 ft | 486 kts | 78° |
| 2026-05-06 21:43 | 50.99584 | -100.34845 | 37084 ft | 485 kts | 77° |
| 2026-05-06 21:43 | 51.00665 | -100.24342 | 37091 ft | 484 kts | 76° |
| 2026-05-06 21:44 | 51.01743 | -100.14165 | 37082 ft | 484 kts | 76° |
| 2026-05-06 21:44 | 51.02873 | -100.03697 | 37076 ft | 484 kts | 76° |
| 2026-05-06 21:45 | 51.04039 | -99.93089 | 37078 ft | 484 kts | 76° |
| 2026-05-06 21:45 | 51.05087 | -99.82605 | 37044 ft | 488 kts | 82° |
| 2026-05-06 21:46 | 51.04917 | -99.71720 | 37131 ft | 491 kts | 91° |
| 2026-05-06 21:46 | 51.04337 | -99.60974 | 37125 ft | 491 kts | 90° |
| 2026-05-06 21:47 | 51.04088 | -99.50249 | 37108 ft | 490 kts | 88° |
| 2026-05-06 21:47 | 51.03960 | -99.39413 | 37097 ft | 490 kts | 87° |
| 2026-05-06 21:48 | 51.03984 | -99.28896 | 37103 ft | 489 kts | 86° |
| 2026-05-06 21:48 | 51.04106 | -99.18102 | 37119 ft | 488 kts | 85° |
| 2026-05-06 21:49 | 51.04257 | -99.07276 | 37110 ft | 489 kts | 85° |
| 2026-05-06 21:49 | 51.04427 | -98.96499 | 37114 ft | 489 kts | 85° |
| 2026-05-06 21:50 | 51.04701 | -98.85674 | 37123 ft | 487 kts | 84° |
| 2026-05-06 21:50 | 51.05122 | -98.74979 | 37117 ft | 487 kts | 83° |
| 2026-05-06 21:51 | 51.05646 | -98.64498 | 37119 ft | 487 kts | 82° |
| 2026-05-06 21:51 | 51.06193 | -98.54263 | 37118 ft | 487 kts | 82° |
| 2026-05-06 21:52 | 51.06773 | -98.43805 | 37112 ft | 487 kts | 82° |
| 2026-05-06 21:52 | 51.07375 | -98.33263 | 37120 ft | 487 kts | 82° |
| 2026-05-06 21:53 | 51.07939 | -98.22551 | 37105 ft | 488 kts | 83° |
| 2026-05-06 21:53 | 51.08398 | -98.11765 | 37111 ft | 488 kts | 83° |
| 2026-05-06 21:54 | 51.08844 | -98.00993 | 37106 ft | 488 kts | 83° |
| 2026-05-06 21:54 | 51.09291 | -97.90285 | 37100 ft | 488 kts | 83° |
| 2026-05-06 21:55 | 51.09750 | -97.79526 | 37109 ft | 487 kts | 83° |
| 2026-05-06 21:55 | 51.10222 | -97.68745 | 37106 ft | 488 kts | 83° |
| 2026-05-06 21:56 | 51.10705 | -97.58021 | 37103 ft | 488 kts | 83° |
| 2026-05-06 21:56 | 51.11194 | -97.47455 | 37114 ft | 487 kts | 83° |
| 2026-05-06 21:57 | 51.11619 | -97.36962 | 37102 ft | 489 kts | 85° |
| 2026-05-06 21:57 | 51.11711 | -97.26221 | 37120 ft | 489 kts | 87° |
| 2026-05-06 21:58 | 51.11703 | -97.15344 | 37113 ft | 489 kts | 88° |
| 2026-05-06 21:58 | 51.11688 | -97.04529 | 37129 ft | 489 kts | 88° |
| 2026-05-06 21:59 | 51.11680 | -96.93684 | 37132 ft | 489 kts | 88° |
| 2026-05-06 21:59 | 51.11682 | -96.82820 | 37135 ft | 489 kts | 88° |
| 2026-05-06 22:00 | 51.11700 | -96.72016 | 37128 ft | 489 kts | 87° |
| 2026-05-06 22:00 | 51.11731 | -96.61254 | 37144 ft | 488 kts | 87° |
| 2026-05-06 22:01 | 51.11776 | -96.50474 | 37146 ft | 489 kts | 87° |
| 2026-05-06 22:01 | 51.11839 | -96.39651 | 37149 ft | 489 kts | 87° |
| 2026-05-06 22:02 | 51.11918 | -96.28802 | 37127 ft | 489 kts | 87° |
| 2026-05-06 22:02 | 51.12012 | -96.18025 | 37144 ft | 489 kts | 87° |
| 2026-05-06 22:03 | 51.12123 | -96.07259 | 37120 ft | 489 kts | 87° |
| 2026-05-06 22:03 | 51.12251 | -95.96424 | 37127 ft | 489 kts | 87° |
| 2026-05-06 22:04 | 51.12394 | -95.85685 | 37125 ft | 489 kts | 86° |
| 2026-05-06 22:04 | 51.12553 | -95.74843 | 37118 ft | 489 kts | 86° |
| 2026-05-06 22:05 | 51.12726 | -95.64074 | 37123 ft | 488 kts | 86° |
| 2026-05-06 22:05 | 51.12914 | -95.53449 | 37117 ft | 488 kts | 86° |
| 2026-05-06 22:06 | 51.13123 | -95.42612 | 37124 ft | 488 kts | 86° |
| 2026-05-06 22:06 | 51.13345 | -95.31924 | 37116 ft | 488 kts | 86° |
| 2026-05-06 22:07 | 51.13572 | -95.21677 | 37109 ft | 488 kts | 86° |
| 2026-05-06 22:07 | 51.13725 | -95.10886 | 37106 ft | 488 kts | 88° |
| 2026-05-06 22:08 | 51.13705 | -95.00148 | 37121 ft | 488 kts | 89° |
| 2026-05-06 22:08 | 51.13576 | -94.89407 | 37107 ft | 489 kts | 90° |
| 2026-05-06 22:09 | 51.13348 | -94.79148 | 37109 ft | 488 kts | 90° |
| 2026-05-06 22:09 | 51.13096 | -94.68312 | 37122 ft | 488 kts | 90° |
| 2026-05-06 22:10 | 51.12893 | -94.59359 | 37101 ft | 489 kts | 90° |
| 2026-05-06 22:10 | 51.12631 | -94.47190 | 37109 ft | 488 kts | 90° |
| 2026-05-06 22:11 | 51.12413 | -94.36339 | 37116 ft | 488 kts | 90° |
| 2026-05-06 22:11 | 51.12213 | -94.25668 | 37085 ft | 488 kts | 90° |
| 2026-05-06 22:12 | 51.12024 | -94.14874 | 37073 ft | 488 kts | 90° |
| 2026-05-06 22:12 | 51.11849 | -94.04014 | 37064 ft | 488 kts | 90° |
| 2026-05-06 22:13 | 51.11716 | -93.95177 | 37040 ft | 488 kts | 90° |
| 2026-05-06 22:13 | 51.11442 | -93.82594 | 37038 ft | 488 kts | 91° |
| 2026-05-06 22:14 | 51.11111 | -93.71764 | 37047 ft | 488 kts | 91° |
| 2026-05-06 22:14 | 51.10773 | -93.61046 | 37038 ft | 489 kts | 92° |
| 2026-05-06 22:15 | 51.10398 | -93.52050 | 37052 ft | 489 kts | 93° |
| 2026-05-06 22:15 | 51.09858 | -93.41310 | 37075 ft | 489 kts | 94° |
| 2026-05-06 22:16 | 51.09265 | -93.30706 | 37069 ft | 489 kts | 94° |
| 2026-05-06 22:16 | 51.08650 | -93.20099 | 37093 ft | 489 kts | 94° |
| 2026-05-06 22:17 | 51.08033 | -93.09493 | 37085 ft | 489 kts | 94° |
| 2026-05-06 22:17 | 51.07412 | -92.98648 | 37082 ft | 489 kts | 94° |
| 2026-05-06 22:18 | 51.06810 | -92.87946 | 37091 ft | 489 kts | 94° |
| 2026-05-06 22:18 | 51.06217 | -92.77163 | 37079 ft | 490 kts | 94° |